map of KNA home
Great Circle Mapper logo
KNA - Airport
Location
City:  Viña del Mar, Valparaíso, Chile
ICAO / IATA:SCVM / KNA

Details
Type:Airport (Aerodrome, Airfield)
Use:Public/Civil, Military
Latitude:32°56'59"S (-32.949610)
Longitude:71°28'43"W (-71.478582)
Datum:WGS 1984
Elevation:461 ft (141 m)
Runways:1
Longest:5760 × 98 ft (1756 × 30 m), paved

Time
Time Zone:UTC-4 (DST-3)
Local Time:

Weather
METAR:SCVM 010900Z 15003KT CAVOK 07/06 Q1017

Related Locations
Nearby:
Farthest:AKA: 12421 mi / 19989 km
Ankang, Shaanxi, CN

Find:

   beyond  
but within

Other Information
Maps:
NOTAMs:
Links:
Sources:

  
flag of Chile
flag of Valparaíso
  

Sectional Chart

Flight Planning
at skyvector.com

Satellite Image

Google Maps Satellite View

 

Copyright © 2004-2014 Karl L. Swartz. All rights reserved.
The Great Circle Mapper name and logo are trademarks of the Great Circle Mapper.
All other trademarks mentioned herein belong to their respective owners.
Please see credits for attibutions and further copyright information.

  Follow gcmap on Facebook Follow gcmap on Twitter

hCard Microformat

Geo Microformat